sensor_id;sensor_type;location;lat;lon;timestamp;pressure;altitude;pressure_sealevel;temperature;humidity
48614;BME280;34408;51.426;5.444;2023-02-01T00:00:15;102037.91;;;7.73;66.40
48614;BME280;34408;51.426;5.444;2023-02-01T00:02:43;102040.56;;;7.73;66.65
48614;BME280;34408;51.426;5.444;2023-02-01T00:05:11;102030.03;;;7.72;66.31
48614;BME280;34408;51.426;5.444;2023-02-01T00:07:38;102029.22;;;7.71;66.32
48614;BME280;34408;51.426;5.444;2023-02-01T00:10:07;102021.34;;;7.70;65.79
48614;BME280;34408;51.426;5.444;2023-02-01T00:12:36;102021.34;;;7.70;65.98
48614;BME280;34408;51.426;5.444;2023-02-01T00:15:05;102009.81;;;7.69;65.25
48614;BME280;34408;51.426;5.444;2023-02-01T00:17:34;102017.00;;;7.69;65.94
48614;BME280;34408;51.426;5.444;2023-02-01T00:20:02;102016.19;;;7.68;66.21
48614;BME280;34408;51.426;5.444;2023-02-01T00:22:30;102001.97;;;7.68;65.73
48614;BME280;34408;51.426;5.444;2023-02-01T00:24:58;101996.78;;;7.66;65.52
48614;BME280;34408;51.426;5.444;2023-02-01T00:27:25;101992.44;;;7.65;65.63
48614;BME280;34408;51.426;5.444;2023-02-01T00:29:54;101975.72;;;7.63;64.93
48614;BME280;34408;51.426;5.444;2023-02-01T00:32:21;101978.41;;;7.63;64.72
48614;BME280;34408;51.426;5.444;2023-02-01T00:34:50;101985.78;;;7.61;64.58
48614;BME280;34408;51.426;5.444;2023-02-01T00:37:18;101993.97;;;7.60;64.78
48614;BME280;34408;51.426;5.444;2023-02-01T00:39:46;101997.66;;;7.59;65.37
48614;BME280;34408;51.426;5.444;2023-02-01T00:42:14;101994.81;;;7.60;64.99
48614;BME280;34408;51.426;5.444;2023-02-01T00:44:41;101972.75;;;7.58;65.27
48614;BME280;34408;51.426;5.444;2023-02-01T00:47:09;101969.25;;;7.58;64.82
48614;BME280;34408;51.426;5.444;2023-02-01T00:49:37;101969.41;;;7.56;64.20
48614;BME280;34408;51.426;5.444;2023-02-01T00:52:06;101982.13;;;7.54;64.75
48614;BME280;34408;51.426;5.444;2023-02-01T00:54:33;101990.16;;;7.54;64.41
48614;BME280;34408;51.426;5.444;2023-02-01T00:57:03;101991.34;;;7.51;64.10
48614;BME280;34408;51.426;5.444;2023-02-01T00:59:30;101994.84;;;7.52;64.51
48614;BME280;34408;51.426;5.444;2023-02-01T01:01:58;102000.19;;;7.52;64.92
48614;BME280;34408;51.426;5.444;2023-02-01T01:04:26;101997.69;;;7.50;64.36
48614;BME280;34408;51.426;5.444;2023-02-01T01:06:54;101996.69;;;7.51;64.28
48614;BME280;34408;51.426;5.444;2023-02-01T01:09:23;101995.19;;;7.49;63.99
48614;BME280;34408;51.426;5.444;2023-02-01T01:11:50;102004.88;;;7.50;65.09
48614;BME280;34408;51.426;5.444;2023-02-01T01:14:19;102004.22;;;7.48;64.01
48614;BME280;34408;51.426;5.444;2023-02-01T01:16:46;102004.22;;;7.48;64.97
48614;BME280;34408;51.426;5.444;2023-02-01T01:19:16;102009.56;;;7.48;64.43
48614;BME280;34408;51.426;5.444;2023-02-01T01:21:44;102013.25;;;7.47;64.14
48614;BME280;34408;51.426;5.444;2023-02-01T01:24:12;102011.59;;;7.46;64.40
48614;BME280;34408;51.426;5.444;2023-02-01T01:26:41;102000.22;;;7.44;63.67
48614;BME280;34408;51.426;5.444;2023-02-01T01:29:09;101992.19;;;7.44;64.37
48614;BME280;34408;51.426;5.444;2023-02-01T01:31:37;101987.03;;;7.42;64.80
48614;BME280;34408;51.426;5.444;2023-02-01T01:34:05;101985.38;;;7.41;64.43
48614;BME280;34408;51.426;5.444;2023-02-01T01:36:32;102000.56;;;7.41;64.70
48614;BME280;34408;51.426;5.444;2023-02-01T01:39:00;102000.56;;;7.41;64.14
48614;BME280;34408;51.426;5.444;2023-02-01T01:41:30;101994.38;;;7.40;63.89
48614;BME280;34408;51.426;5.444;2023-02-01T01:44:01;101993.72;;;7.38;64.01
48614;BME280;34408;51.426;5.444;2023-02-01T01:46:31;102003.75;;;7.36;64.20
48614;BME280;34408;51.426;5.444;2023-02-01T01:49:04;101988.59;;;7.29;64.45
48614;BME280;34408;51.426;5.444;2023-02-01T01:51:38;102009.13;;;7.36;64.73
48614;BME280;34408;51.426;5.444;2023-02-01T01:54:12;102006.63;;;7.35;64.27
48614;BME280;34408;51.426;5.444;2023-02-01T01:56:46;102013.81;;;7.34;64.25
48614;BME280;34408;51.426;5.444;2023-02-01T01:59:18;102015.63;;;7.34;64.05
48614;BME280;34408;51.426;5.444;2023-02-01T02:01:47;102006.78;;;7.33;63.92
48614;BME280;34408;51.426;5.444;2023-02-01T02:04:15;102012.31;;;7.32;64.83
48614;BME280;34408;51.426;5.444;2023-02-01T02:06:47;102015.16;;;7.30;63.91
48614;BME280;34408;51.426;5.444;2023-02-01T02:09:17;102014.47;;;7.28;64.60
48614;BME280;34408;51.426;5.444;2023-02-01T02:11:45;102011.47;;;7.31;64.47
48614;BME280;34408;51.426;5.444;2023-02-01T02:14:15;101999.28;;;7.29;65.00
48614;BME280;34408;51.426;5.444;2023-02-01T02:17:04;101998.09;;;7.31;64.80
48614;BME280;34408;51.426;5.444;2023-02-01T02:19:54;101998.28;;;7.30;64.89
48614;BME280;34408;51.426;5.444;2023-02-01T02:25:57;101994.94;;;7.28;64.07
48614;BME280;34408;51.426;5.444;2023-02-01T02:28:54;101977.22;;;7.27;64.18
48614;BME280;34408;51.426;5.444;2023-02-01T02:31:43;101970.22;;;7.26;64.63
48614;BME280;34408;51.426;5.444;2023-02-01T02:34:18;101974.72;;;7.25;65.18
48614;BME280;34408;51.426;5.444;2023-02-01T02:36:58;101950.84;;;7.24;64.89
48614;BME280;34408;51.426;5.444;2023-02-01T02:39:36;101956.19;;;7.24;64.40
48614;BME280;34408;51.426;5.444;2023-02-01T02:42:11;101958.69;;;7.25;64.85
48614;BME280;34408;51.426;5.444;2023-02-01T02:45:02;101964.19;;;7.24;64.64
48614;BME280;34408;51.426;5.444;2023-02-01T02:47:54;101969.53;;;7.24;64.75
48614;BME280;34408;51.426;5.444;2023-02-01T02:50:28;101958.19;;;7.22;64.28
48614;BME280;34408;51.426;5.444;2023-02-01T02:53:16;101954.69;;;7.21;64.71
48614;BME280;34408;51.426;5.444;2023-02-01T02:56:04;101961.03;;;7.20;64.67
48614;BME280;34408;51.426;5.444;2023-02-01T02:58:51;101961.03;;;7.20;64.53
48614;BME280;34408;51.426;5.444;2023-02-01T03:01:38;101963.88;;;7.18;65.16
48614;BME280;34408;51.426;5.444;2023-02-01T03:04:24;101963.03;;;7.18;64.28
48614;BME280;34408;51.426;5.444;2023-02-01T03:06:54;101948.69;;;7.19;64.33
48614;BME280;34408;51.426;5.444;2023-02-01T03:09:26;101948.84;;;7.17;64.77
48614;BME280;34408;51.426;5.444;2023-02-01T03:12:00;101959.53;;;7.17;65.07
48614;BME280;34408;51.426;5.444;2023-02-01T03:14:50;101947.19;;;7.16;64.81
48614;BME280;34408;51.426;5.444;2023-02-01T03:17:24;101949.03;;;7.16;65.00
48614;BME280;34408;51.426;5.444;2023-02-01T03:19:56;101946.53;;;7.14;64.72
48614;BME280;34408;51.426;5.444;2023-02-01T03:22:28;101946.69;;;7.13;64.57
48614;BME280;34408;51.426;5.444;2023-02-01T03:25:04;101950.19;;;7.13;65.48
48614;BME280;34408;51.426;5.444;2023-02-01T03:27:35;101948.53;;;7.12;65.32
48614;BME280;34408;51.426;5.444;2023-02-01T03:30:11;101941.53;;;7.03;64.84
48614;BME280;34408;51.426;5.444;2023-02-01T03:32:47;101946.88;;;7.11;64.94
48614;BME280;34408;51.426;5.444;2023-02-01T03:35:30;101948.53;;;7.12;64.60
48614;BME280;34408;51.426;5.444;2023-02-01T03:38:08;101955.53;;;7.13;64.92
48614;BME280;34408;51.426;5.444;2023-02-01T03:40:41;101951.19;;;7.12;64.63
48614;BME280;34408;51.426;5.444;2023-02-01T03:43:15;101946.69;;;7.13;64.63
48614;BME280;34408;51.426;5.444;2023-02-01T03:45:49;101947.69;;;7.12;64.65
48614;BME280;34408;51.426;5.444;2023-02-01T03:48:22;101948.53;;;7.12;65.15
48614;BME280;34408;51.426;5.444;2023-02-01T03:50:55;101941.03;;;7.08;64.94
48614;BME280;34408;51.426;5.444;2023-02-01T03:53:25;101950.38;;;7.12;64.82
48614;BME280;34408;51.426;5.444;2023-02-01T03:55:54;101946.03;;;7.11;64.94
48614;BME280;34408;51.426;5.444;2023-02-01T03:58:23;101954.88;;;7.11;64.65
48614;BME280;34408;51.426;5.444;2023-02-01T04:00:53;101950.53;;;7.10;64.83
48614;BME280;34408;51.426;5.444;2023-02-01T04:03:21;101939.84;;;7.10;64.92
48614;BME280;34408;51.426;5.444;2023-02-01T04:05:49;101936.50;;;7.08;65.29
48614;BME280;34408;51.426;5.444;2023-02-01T04:08:17;101931.34;;;7.07;65.23
48614;BME280;34408;51.426;5.444;2023-02-01T04:10:47;101939.19;;;7.08;64.65
48614;BME280;34408;51.426;5.444;2023-02-01T04:13:14;101953.38;;;7.09;64.57
48614;BME280;34408;51.426;5.444;2023-02-01T04:15:42;101937.53;;;7.07;64.66
48614;BME280;34408;51.426;5.444;2023-02-01T04:18:10;101931.34;;;7.07;64.87
48614;BME280;34408;51.426;5.444;2023-02-01T04:20:38;101920.66;;;7.07;64.85
48614;BME280;34408;51.426;5.444;2023-02-01T04:23:05;101922.31;;;7.08;64.68
48614;BME280;34408;51.426;5.444;2023-02-01T04:25:33;101911.63;;;7.08;65.37
48614;BME280;34408;51.426;5.444;2023-02-01T04:28:02;101917.97;;;7.07;64.86
48614;BME280;34408;51.426;5.444;2023-02-01T04:30:31;101925.16;;;7.06;65.08
48614;BME280;34408;51.426;5.444;2023-02-01T04:32:59;101923.50;;;7.05;64.58
48614;BME280;34408;51.426;5.444;2023-02-01T04:35:26;101929.00;;;7.04;64.79
48614;BME280;34408;51.426;5.444;2023-02-01T04:37:54;101934.19;;;7.05;65.14
48614;BME280;34408;51.426;5.444;2023-02-01T04:40:22;101935.19;;;7.04;65.18
48614;BME280;34408;51.426;5.444;2023-02-01T04:42:50;101926.34;;;7.04;64.96
48614;BME280;34408;51.426;5.444;2023-02-01T04:45:19;101927.34;;;7.03;65.00
48614;BME280;34408;51.426;5.444;2023-02-01T04:47:47;101932.69;;;7.03;65.16
48614;BME280;34408;51.426;5.444;2023-02-01T04:50:16;101936.38;;;7.02;65.56
48614;BME280;34408;51.426;5.444;2023-02-01T04:52:43;101938.03;;;7.03;65.25
48614;BME280;34408;51.426;5.444;2023-02-01T04:55:12;101935.53;;;7.01;65.20
48614;BME280;34408;51.426;5.444;2023-02-01T04:57:40;101937.38;;;7.01;64.68
48614;BME280;34408;51.426;5.444;2023-02-01T05:00:10;101940.22;;;6.99;65.24
48614;BME280;34408;51.426;5.444;2023-02-01T05:02:39;101942.22;;;6.97;64.88
48614;BME280;34408;51.426;5.444;2023-02-01T05:05:08;101943.22;;;6.96;65.07
48614;BME280;34408;51.426;5.444;2023-02-01T05:07:35;101953.09;;;6.96;64.74
48614;BME280;34408;51.426;5.444;2023-02-01T05:10:03;101947.75;;;6.96;65.16
48614;BME280;34408;51.426;5.444;2023-02-01T05:12:31;101958.59;;;6.94;64.97
48614;BME280;34408;51.426;5.444;2023-02-01T05:15:16;101950.78;;;6.93;65.02
48614;BME280;34408;51.426;5.444;2023-02-01T05:17:45;101953.47;;;6.93;64.99
48614;BME280;34408;51.426;5.444;2023-02-01T05:20:13;101948.13;;;6.93;64.66
48614;BME280;34408;51.426;5.444;2023-02-01T05:22:41;101943.59;;;6.93;64.94
48614;BME280;34408;51.426;5.444;2023-02-01T05:25:09;101947.28;;;6.92;65.42
48614;BME280;34408;51.426;5.444;2023-02-01T05:27:36;101941.94;;;6.92;64.97
48614;BME280;34408;51.426;5.444;2023-02-01T05:30:05;101938.44;;;6.92;64.96
48614;BME280;34408;51.426;5.444;2023-02-01T05:32:34;101929.75;;;6.90;64.97
48614;BME280;34408;51.426;5.444;2023-02-01T05:35:03;101930.59;;;6.90;65.00
48614;BME280;34408;51.426;5.444;2023-02-01T05:37:31;101926.06;;;6.91;64.64
48614;BME280;34408;51.426;5.444;2023-02-01T05:39:59;101916.56;;;6.88;65.22
48614;BME280;34408;51.426;5.444;2023-02-01T05:42:26;101927.09;;;6.90;65.09
48614;BME280;34408;51.426;5.444;2023-02-01T05:44:54;101921.06;;;6.88;65.37
48614;BME280;34408;51.426;5.444;2023-02-01T05:47:22;101931.59;;;6.89;65.25
48614;BME280;34408;51.426;5.444;2023-02-01T05:49:49;101933.25;;;6.90;64.66
48614;BME280;34408;51.426;5.444;2023-02-01T05:52:18;101939.44;;;6.91;65.56
48614;BME280;34408;51.426;5.444;2023-02-01T05:54:47;101939.44;;;6.91;65.47
48614;BME280;34408;51.426;5.444;2023-02-01T05:57:15;101936.75;;;6.91;64.95
48614;BME280;34408;51.426;5.444;2023-02-01T05:59:43;101945.78;;;6.90;64.87
48614;BME280;34408;51.426;5.444;2023-02-01T06:02:12;101941.09;;;6.92;64.87
48614;BME280;34408;51.426;5.444;2023-02-01T06:04:39;101945.44;;;6.93;65.42
48614;BME280;34408;51.426;5.444;2023-02-01T06:07:08;101948.28;;;6.91;64.80
48614;BME280;34408;51.426;5.444;2023-02-01T06:09:38;101946.44;;;6.92;65.04
48614;BME280;34408;51.426;5.444;2023-02-01T06:12:06;101941.28;;;6.90;65.92
48614;BME280;34408;51.426;5.444;2023-02-01T06:14:34;101930.59;;;6.90;65.86
48614;BME280;34408;51.426;5.444;2023-02-01T06:17:01;101941.28;;;6.90;65.47
48614;BME280;34408;51.426;5.444;2023-02-01T06:19:29;101937.59;;;6.91;65.75
48614;BME280;34408;51.426;5.444;2023-02-01T06:21:57;101938.44;;;6.92;65.66
48614;BME280;34408;51.426;5.444;2023-02-01T06:24:24;101942.09;;;6.91;65.93
48614;BME280;34408;51.426;5.444;2023-02-01T06:26:53;101946.63;;;6.90;65.57
48614;BME280;34408;51.426;5.444;2023-02-01T06:29:21;101944.94;;;6.89;65.38
48614;BME280;34408;51.426;5.444;2023-02-01T06:31:49;101959.16;;;6.90;65.07
48614;BME280;34408;51.426;5.444;2023-02-01T06:34:17;101954.81;;;6.89;65.90
48614;BME280;34408;51.426;5.444;2023-02-01T06:36:47;101954.63;;;6.90;65.71
48614;BME280;34408;51.426;5.444;2023-02-01T06:39:15;101945.97;;;6.88;65.51
48614;BME280;34408;51.426;5.444;2023-02-01T06:41:45;101959.31;;;6.88;65.78
48614;BME280;34408;51.426;5.444;2023-02-01T06:44:15;101960.16;;;6.89;65.62
48614;BME280;34408;51.426;5.444;2023-02-01T06:46:43;101954.97;;;6.87;65.95
48614;BME280;34408;51.426;5.444;2023-02-01T06:49:11;101961.31;;;6.86;65.70
48614;BME280;34408;51.426;5.444;2023-02-01T06:51:39;101963.84;;;6.88;65.47
48614;BME280;34408;51.426;5.444;2023-02-01T06:54:06;101966.66;;;6.86;65.30
48614;BME280;34408;51.426;5.444;2023-02-01T06:56:34;101968.50;;;6.85;65.80
48614;BME280;34408;51.426;5.444;2023-02-01T06:59:03;101960.50;;;6.85;65.91
48614;BME280;34408;51.426;5.444;2023-02-01T07:01:32;101957.00;;;6.85;65.54
48614;BME280;34408;51.426;5.444;2023-02-01T07:04:00;101965.84;;;6.85;66.17
48614;BME280;34408;51.426;5.444;2023-02-01T07:06:28;101966.66;;;6.86;65.68
48614;BME280;34408;51.426;5.444;2023-02-01T07:08:57;101964.16;;;6.84;65.74
48614;BME280;34408;51.426;5.444;2023-02-01T07:11:25;101968.69;;;6.84;65.66
48614;BME280;34408;51.426;5.444;2023-02-01T07:13:54;101960.50;;;6.85;66.00
48614;BME280;34408;51.426;5.444;2023-02-01T07:16:22;101962.84;;;6.80;66.24
48614;BME280;34408;51.426;5.444;2023-02-01T07:18:52;101971.84;;;6.79;66.61
48614;BME280;34408;51.426;5.444;2023-02-01T07:21:20;101957.66;;;6.79;66.61
48614;BME280;34408;51.426;5.444;2023-02-01T07:23:47;101964.84;;;6.78;66.35
48614;BME280;34408;51.426;5.444;2023-02-01T07:26:15;101953.31;;;6.78;66.12
48614;BME280;34408;51.426;5.444;2023-02-01T07:28:43;101957.00;;;6.77;66.47
48614;BME280;34408;51.426;5.444;2023-02-01T07:31:14;101964.00;;;6.78;66.49
48614;BME280;34408;51.426;5.444;2023-02-01T07:33:45;101964.84;;;6.78;66.28
48614;BME280;34408;51.426;5.444;2023-02-01T07:36:15;101962.50;;;6.75;66.24
48614;BME280;34408;51.426;5.444;2023-02-01T07:38:44;101971.38;;;6.68;66.87
48614;BME280;34408;51.426;5.444;2023-02-01T07:41:13;101977.72;;;6.67;67.07
48614;BME280;34408;51.426;5.444;2023-02-01T07:43:41;101975.03;;;6.67;66.87
48614;BME280;34408;51.426;5.444;2023-02-01T07:46:09;101978.56;;;6.67;66.89
48614;BME280;34408;51.426;5.444;2023-02-01T07:48:37;101975.72;;;6.69;66.33
48614;BME280;34408;51.426;5.444;2023-02-01T07:51:08;101973.03;;;6.69;66.61
48614;BME280;34408;51.426;5.444;2023-02-01T07:53:37;101979.22;;;6.69;66.58
48614;BME280;34408;51.426;5.444;2023-02-01T07:56:11;101983.38;;;6.72;66.26
48614;BME280;34408;51.426;5.444;2023-02-01T07:58:39;101982.56;;;6.71;66.79
48614;BME280;34408;51.426;5.444;2023-02-01T08:01:13;101983.22;;;6.73;66.60
48614;BME280;34408;51.426;5.444;2023-02-01T08:03:47;101971.69;;;6.73;66.41
48614;BME280;34408;51.426;5.444;2023-02-01T08:06:15;101972.53;;;6.73;66.32
48614;BME280;34408;51.426;5.444;2023-02-01T08:08:45;101980.38;;;6.75;66.00
48614;BME280;34408;51.426;5.444;2023-02-01T08:11:13;101986.72;;;6.74;66.88
48614;BME280;34408;51.426;5.444;2023-02-01T08:13:41;102002.59;;;6.75;66.29
48614;BME280;34408;51.426;5.444;2023-02-01T08:16:11;101991.56;;;6.70;66.55
48614;BME280;34408;51.426;5.444;2023-02-01T08:18:39;102001.75;;;6.75;66.66
48614;BME280;34408;51.426;5.444;2023-02-01T08:21:10;102007.94;;;6.75;66.54
48614;BME280;34408;51.426;5.444;2023-02-01T08:23:39;102000.09;;;6.74;66.52
48614;BME280;34408;51.426;5.444;2023-02-01T08:26:10;101995.56;;;6.74;66.38
48614;BME280;34408;51.426;5.444;2023-02-01T08:28:41;102002.75;;;6.74;66.61
48614;BME280;34408;51.426;5.444;2023-02-01T08:31:11;102000.91;;;6.74;66.74
48614;BME280;34408;51.426;5.444;2023-02-01T08:33:41;101993.75;;;6.75;66.65
48614;BME280;34408;51.426;5.444;2023-02-01T08:36:10;102009.59;;;6.76;66.53
48614;BME280;34408;51.426;5.444;2023-02-01T08:38:39;102007.44;;;6.80;66.32
48614;BME280;34408;51.426;5.444;2023-02-01T08:41:09;102008.09;;;6.82;66.53
48614;BME280;34408;51.426;5.444;2023-02-01T08:43:37;102012.09;;;6.86;66.10
48614;BME280;34408;51.426;5.444;2023-02-01T08:46:05;102017.28;;;6.88;66.27
48614;BME280;34408;51.426;5.444;2023-02-01T08:48:34;102009.09;;;6.89;66.16
48614;BME280;34408;51.426;5.444;2023-02-01T08:51:03;101999.41;;;6.88;66.56
48614;BME280;34408;51.426;5.444;2023-02-01T08:53:31;102003.75;;;6.89;66.18
48614;BME280;34408;51.426;5.444;2023-02-01T08:55:59;102009.09;;;6.89;66.19
48614;BME280;34408;51.426;5.444;2023-02-01T08:58:29;101997.38;;;6.90;65.99
48614;BME280;34408;51.426;5.444;2023-02-01T09:00:57;101999.06;;;6.91;66.62
48614;BME280;34408;51.426;5.444;2023-02-01T09:03:25;101982.66;;;6.94;66.33
48614;BME280;34408;51.426;5.444;2023-02-01T09:06:00;101981.63;;;7.11;65.68
48614;BME280;34408;51.426;5.444;2023-02-01T09:08:28;101977.41;;;7.25;65.48
48614;BME280;34408;51.426;5.444;2023-02-01T09:10:59;101979.34;;;7.39;65.35
48614;BME280;34408;51.426;5.444;2023-02-01T09:13:30;101965.72;;;7.57;64.77
48614;BME280;34408;51.426;5.444;2023-02-01T09:15:58;101964.19;;;7.63;64.42
48614;BME280;34408;51.426;5.444;2023-02-01T09:18:26;101954.50;;;7.62;63.99
48614;BME280;34408;51.426;5.444;2023-02-01T09:20:54;101959.03;;;7.61;64.35
48614;BME280;34408;51.426;5.444;2023-02-01T09:23:21;101954.84;;;7.59;64.67
48614;BME280;34408;51.426;5.444;2023-02-01T09:25:49;101953.81;;;7.68;64.87
48614;BME280;34408;51.426;5.444;2023-02-01T09:28:18;101946.22;;;7.79;64.66
48614;BME280;34408;51.426;5.444;2023-02-01T09:30:47;101951.47;;;7.96;63.18
48614;BME280;34408;51.426;5.444;2023-02-01T09:33:15;101960.56;;;8.09;62.55
48614;BME280;34408;51.426;5.444;2023-02-01T09:35:44;101936.81;;;8.29;62.39
48614;BME280;34408;51.426;5.444;2023-02-01T09:38:11;101941.91;;;8.47;61.95
48614;BME280;34408;51.426;5.444;2023-02-01T09:40:42;101956.53;;;8.59;61.77
48614;BME280;34408;51.426;5.444;2023-02-01T09:43:24;101956.69;;;8.72;60.65
48614;BME280;34408;51.426;5.444;2023-02-01T09:46:11;101953.66;;;8.61;61.49
48614;BME280;34408;51.426;5.444;2023-02-01T09:48:44;101962.78;;;8.52;61.94
48614;BME280;34408;51.426;5.444;2023-02-01T09:51:15;101959.56;;;8.56;61.81
48614;BME280;34408;51.426;5.444;2023-02-01T09:53:46;101954.78;;;8.66;61.32
48614;BME280;34408;51.426;5.444;2023-02-01T09:56:21;101957.63;;;8.79;60.81
48614;BME280;34408;51.426;5.444;2023-02-01T09:58:55;101954.78;;;8.96;60.00
48614;BME280;34408;51.426;5.444;2023-02-01T10:01:28;101952.19;;;9.02;60.33
48614;BME280;34408;51.426;5.444;2023-02-01T10:04:01;101948.22;;;9.13;59.49
48614;BME280;34408;51.426;5.444;2023-02-01T10:06:35;101939.06;;;9.22;59.42
48614;BME280;34408;51.426;5.444;2023-02-01T10:09:23;101941.00;;;9.28;59.06
48614;BME280;34408;51.426;5.444;2023-02-01T10:12:12;101952.66;;;9.35;59.33
48614;BME280;34408;51.426;5.444;2023-02-01T10:14:51;101954.59;;;9.41;58.89
48614;BME280;34408;51.426;5.444;2023-02-01T10:17:31;101955.41;;;9.42;59.17
48614;BME280;34408;51.426;5.444;2023-02-01T10:20:11;101962.44;;;9.43;58.75
48614;BME280;34408;51.426;5.444;2023-02-01T10:22:45;101968.53;;;9.52;58.63
48614;BME280;34408;51.426;5.444;2023-02-01T10:25:37;101977.88;;;9.56;57.91
48614;BME280;34408;51.426;5.444;2023-02-01T10:28:14;101965.94;;;9.58;58.33
48614;BME280;34408;51.426;5.444;2023-02-01T10:30:45;101990.00;;;9.52;58.28
48614;BME280;34408;51.426;5.444;2023-02-01T10:33:19;101989.00;;;9.38;58.66
48614;BME280;34408;51.426;5.444;2023-02-01T10:35:53;101994.75;;;9.20;59.20
48614;BME280;34408;51.426;5.444;2023-02-01T10:38:25;101986.59;;;8.99;59.93
48614;BME280;34408;51.426;5.444;2023-02-01T10:40:57;101987.88;;;8.88;60.43
48614;BME280;34408;51.426;5.444;2023-02-01T10:43:27;101989.69;;;8.73;60.83
48614;BME280;34408;51.426;5.444;2023-02-01T10:45:56;101993.84;;;8.75;61.30
48614;BME280;34408;51.426;5.444;2023-02-01T10:48:25;101986.66;;;8.76;60.43
48614;BME280;34408;51.426;5.444;2023-02-01T10:50:59;102003.41;;;8.93;60.29
48614;BME280;34408;51.426;5.444;2023-02-01T10:53:31;101969.78;;;9.20;59.43
48614;BME280;34408;51.426;5.444;2023-02-01T10:56:06;101967.91;;;9.20;59.02
48614;BME280;34408;51.426;5.444;2023-02-01T10:58:36;101965.03;;;9.36;59.10
48614;BME280;34408;51.426;5.444;2023-02-01T11:01:16;101959.22;;;9.48;58.11
48614;BME280;34408;51.426;5.444;2023-02-01T11:03:52;101969.09;;;9.47;58.17
48614;BME280;34408;51.426;5.444;2023-02-01T11:06:28;101963.19;;;9.37;58.16
48614;BME280;34408;51.426;5.444;2023-02-01T11:08:58;101960.97;;;9.26;58.86
48614;BME280;34408;51.426;5.444;2023-02-01T11:11:27;101949.34;;;9.04;58.86
48614;BME280;34408;51.426;5.444;2023-02-01T11:13:57;101956.16;;;8.92;59.93
48614;BME280;34408;51.426;5.444;2023-02-01T11:16:32;101945.53;;;8.84;59.70
48614;BME280;34408;51.426;5.444;2023-02-01T11:19:02;101936.09;;;8.73;60.10
48614;BME280;34408;51.426;5.444;2023-02-01T11:21:31;101938.88;;;8.65;60.58
48614;BME280;34408;51.426;5.444;2023-02-01T11:24:01;101924.84;;;8.63;60.75
48614;BME280;34408;51.426;5.444;2023-02-01T11:26:30;101933.59;;;8.57;61.06
48614;BME280;34408;51.426;5.444;2023-02-01T11:29:02;101924.63;;;8.50;61.43
48614;BME280;34408;51.426;5.444;2023-02-01T11:31:32;101933.69;;;8.48;61.68
48614;BME280;34408;51.426;5.444;2023-02-01T11:34:07;101937.06;;;8.42;61.75
48614;BME280;34408;51.426;5.444;2023-02-01T11:36:36;101928.75;;;8.37;61.66
48614;BME280;34408;51.426;5.444;2023-02-01T11:39:10;101923.94;;;8.33;61.02
48614;BME280;34408;51.426;5.444;2023-02-01T11:41:56;101920.72;;;8.37;61.44
48614;BME280;34408;51.426;5.444;2023-02-01T11:44:31;101917.88;;;8.54;60.49
48614;BME280;34408;51.426;5.444;2023-02-01T11:47:28;101915.31;;;8.75;59.78
48614;BME280;34408;51.426;5.444;2023-02-01T11:50:00;101920.94;;;8.95;58.86
48614;BME280;34408;51.426;5.444;2023-02-01T11:52:37;101917.25;;;9.10;58.22
48614;BME280;34408;51.426;5.444;2023-02-01T11:55:24;101923.44;;;9.26;58.20
48614;BME280;34408;51.426;5.444;2023-02-01T11:57:59;101914.53;;;9.40;57.71
48614;BME280;34408;51.426;5.444;2023-02-01T12:00:39;101910.34;;;9.52;58.00
48614;BME280;34408;51.426;5.444;2023-02-01T12:03:43;101923.88;;;9.44;57.48
48614;BME280;34408;51.426;5.444;2023-02-01T12:06:24;101904.47;;;9.27;57.76
48614;BME280;34408;51.426;5.444;2023-02-01T12:09:21;101907.91;;;9.06;58.96
48614;BME280;34408;51.426;5.444;2023-02-01T12:11:59;101894.50;;;8.92;59.11
48614;BME280;34408;51.426;5.444;2023-02-01T12:14:50;101898.13;;;8.84;59.82
48614;BME280;34408;51.426;5.444;2023-02-01T12:17:50;101906.25;;;8.76;58.96
48614;BME280;34408;51.426;5.444;2023-02-01T12:20:48;101886.38;;;8.70;60.37
48614;BME280;34408;51.426;5.444;2023-02-01T12:23:33;101885.28;;;8.65;60.11
48614;BME280;34408;51.426;5.444;2023-02-01T12:26:18;101900.97;;;8.68;59.92
48614;BME280;34408;51.426;5.444;2023-02-01T12:29:07;101904.97;;;8.57;59.90
48614;BME280;34408;51.426;5.444;2023-02-01T12:31:45;101894.13;;;8.51;60.98
48614;BME280;34408;51.426;5.444;2023-02-01T12:34:30;101896.00;;;8.50;61.07
48614;BME280;34408;51.426;5.444;2023-02-01T12:37:06;101907.25;;;8.45;60.81
48614;BME280;34408;51.426;5.444;2023-02-01T12:39:40;101898.56;;;8.43;60.71
48614;BME280;34408;51.426;5.444;2023-02-01T12:42:13;101901.53;;;8.48;61.06
48614;BME280;34408;51.426;5.444;2023-02-01T12:44:47;101899.06;;;8.62;59.90
48614;BME280;34408;51.426;5.444;2023-02-01T12:47:21;101887.28;;;8.77;59.55
48614;BME280;34408;51.426;5.444;2023-02-01T12:49:56;101891.63;;;8.93;59.40
48614;BME280;34408;51.426;5.444;2023-02-01T12:52:34;101881.19;;;8.98;58.82
48614;BME280;34408;51.426;5.444;2023-02-01T12:55:10;101882.38;;;9.25;58.85
48614;BME280;34408;51.426;5.444;2023-02-01T12:57:46;101878.44;;;9.42;58.22
48614;BME280;34408;51.426;5.444;2023-02-01T13:00:22;101889.59;;;9.61;57.30
48614;BME280;34408;51.426;5.444;2023-02-01T13:02:54;101887.88;;;9.74;57.39
48614;BME280;34408;51.426;5.444;2023-02-01T13:05:28;101885.66;;;9.78;56.74
48614;BME280;34408;51.426;5.444;2023-02-01T13:08:01;101895.03;;;9.67;57.06
48614;BME280;34408;51.426;5.444;2023-02-01T13:10:34;101878.91;;;9.46;57.78
48614;BME280;34408;51.426;5.444;2023-02-01T13:13:10;101879.03;;;9.23;58.15
48614;BME280;34408;51.426;5.444;2023-02-01T13:15:41;101874.34;;;9.10;59.12
48614;BME280;34408;51.426;5.444;2023-02-01T13:18:14;101877.69;;;8.98;58.83
48614;BME280;34408;51.426;5.444;2023-02-01T13:20:49;101872.41;;;8.90;59.65
48614;BME280;34408;51.426;5.444;2023-02-01T13:23:26;101866.78;;;8.85;60.06
48614;BME280;34408;51.426;5.444;2023-02-01T13:25:56;101885.44;;;8.78;60.34
48614;BME280;34408;51.426;5.444;2023-02-01T13:28:26;101873.25;;;8.75;59.50